Redwood Valley, California
Current Conditions -  °F | °C
As of 3:56 AM on Friday 19 Dec 2014 (Local Time) from KUKI Reporting Station
Heavy Rain Heavy Rain  
Wind Chill: 53°   Ceiling: 600
Heat Index: 53°   Visibility: 1.7mi
Dew Point: 50°   Wind: 8mph
Humidity: 89%   Direction: 160°SSE
Pressure: 30.05"   Gusts: NA
Location:  39.27°N, 123.21°W
Report Text: KUKI 191156Z AUTO 16007KT 1 3/4SM +RA BR BKN006 OVC017 12/10 A3005 RMK AO2 SLP171 P0009 60011 70012 T01170100 10117 20111 58013
Loading
Personal Weather Stations






























Interactive Weather Map New forecast layout! Learn more

10-Day Weather Forecast

Advertisements
Track Severe Weather on mobile